sensor_id;sensor_type;location;lat;lon;timestamp;P1;durP1;ratioP1;P2;durP2;ratioP2
18066;SDS011;9158;51.528;7.192;2022-09-27T00:00:14;3.87;;;2.00;;
18066;SDS011;9158;51.528;7.192;2022-09-27T00:00:45;5.32;;;2.20;;
18066;SDS011;9158;51.528;7.192;2022-09-27T00:01:17;6.60;;;2.38;;
18066;SDS011;9158;51.528;7.192;2022-09-27T00:01:47;4.27;;;2.20;;
18066;SDS011;9158;51.528;7.192;2022-09-27T00:02:19;3.30;;;2.08;;
18066;SDS011;9158;51.528;7.192;2022-09-27T00:02:50;2.85;;;2.33;;
18066;SDS011;9158;51.528;7.192;2022-09-27T00:03:21;9.23;;;2.10;;
18066;SDS011;9158;51.528;7.192;2022-09-27T00:03:53;5.57;;;2.10;;
18066;SDS011;9158;51.528;7.192;2022-09-27T00:04:24;6.28;;;2.08;;
18066;SDS011;9158;51.528;7.192;2022-09-27T00:04:55;8.43;;;1.70;;
18066;SDS011;9158;51.528;7.192;2022-09-27T00:05:27;5.00;;;2.47;;
18066;SDS011;9158;51.528;7.192;2022-09-27T00:06:00;5.88;;;2.20;;
18066;SDS011;9158;51.528;7.192;2022-09-27T00:06:34;2.03;;;1.77;;
18066;SDS011;9158;51.528;7.192;2022-09-27T00:07:06;8.45;;;1.90;;
18066;SDS011;9158;51.528;7.192;2022-09-27T00:07:37;3.70;;;1.70;;
18066;SDS011;9158;51.528;7.192;2022-09-27T00:08:08;4.00;;;2.22;;
18066;SDS011;9158;51.528;7.192;2022-09-27T00:08:39;7.63;;;2.60;;
18066;SDS011;9158;51.528;7.192;2022-09-27T00:09:11;4.88;;;1.50;;
18066;SDS011;9158;51.528;7.192;2022-09-27T00:09:42;5.30;;;2.03;;
18066;SDS011;9158;51.528;7.192;2022-09-27T00:10:13;7.10;;;2.00;;
18066;SDS011;9158;51.528;7.192;2022-09-27T00:10:45;3.15;;;1.83;;
18066;SDS011;9158;51.528;7.192;2022-09-27T00:11:17;2.63;;;1.80;;
18066;SDS011;9158;51.528;7.192;2022-09-27T00:11:54;5.40;;;2.05;;
18066;SDS011;9158;51.528;7.192;2022-09-27T00:12:25;5.32;;;1.88;;
18066;SDS011;9158;51.528;7.192;2022-09-27T00:12:56;3.90;;;1.98;;
18066;SDS011;9158;51.528;7.192;2022-09-27T00:13:28;5.35;;;2.00;;
18066;SDS011;9158;51.528;7.192;2022-09-27T00:14:00;3.47;;;1.70;;
18066;SDS011;9158;51.528;7.192;2022-09-27T00:14:32;5.38;;;2.17;;
18066;SDS011;9158;51.528;7.192;2022-09-27T00:15:04;4.30;;;2.00;;
18066;SDS011;9158;51.528;7.192;2022-09-27T00:15:36;3.38;;;2.20;;
18066;SDS011;9158;51.528;7.192;2022-09-27T00:16:08;2.70;;;1.83;;
18066;SDS011;9158;51.528;7.192;2022-09-27T00:16:39;4.75;;;1.80;;
18066;SDS011;9158;51.528;7.192;2022-09-27T00:17:11;7.13;;;1.65;;
18066;SDS011;9158;51.528;7.192;2022-09-27T00:17:43;6.50;;;2.50;;
18066;SDS011;9158;51.528;7.192;2022-09-27T00:18:14;4.78;;;2.13;;
18066;SDS011;9158;51.528;7.192;2022-09-27T00:18:46;3.10;;;2.00;;
18066;SDS011;9158;51.528;7.192;2022-09-27T00:19:18;4.70;;;2.00;;
18066;SDS011;9158;51.528;7.192;2022-09-27T00:19:51;3.72;;;1.85;;
18066;SDS011;9158;51.528;7.192;2022-09-27T00:20:25;2.95;;;1.73;;
18066;SDS011;9158;51.528;7.192;2022-09-27T00:21:02;2.78;;;1.67;;
18066;SDS011;9158;51.528;7.192;2022-09-27T00:21:35;3.55;;;1.67;;
18066;SDS011;9158;51.528;7.192;2022-09-27T00:22:06;2.63;;;1.73;;
18066;SDS011;9158;51.528;7.192;2022-09-27T00:22:38;4.65;;;2.05;;
18066;SDS011;9158;51.528;7.192;2022-09-27T00:23:08;4.53;;;1.70;;
18066;SDS011;9158;51.528;7.192;2022-09-27T00:23:39;3.03;;;1.67;;
18066;SDS011;9158;51.528;7.192;2022-09-27T00:24:12;5.68;;;1.63;;
18066;SDS011;9158;51.528;7.192;2022-09-27T00:24:44;4.00;;;1.50;;
18066;SDS011;9158;51.528;7.192;2022-09-27T00:25:15;4.67;;;1.97;;
18066;SDS011;9158;51.528;7.192;2022-09-27T00:25:53;3.55;;;1.25;;
18066;SDS011;9158;51.528;7.192;2022-09-27T00:26:25;4.72;;;1.50;;
18066;SDS011;9158;51.528;7.192;2022-09-27T00:26:56;5.35;;;1.52;;
18066;SDS011;9158;51.528;7.192;2022-09-27T00:27:28;1.73;;;1.35;;
18066;SDS011;9158;51.528;7.192;2022-09-27T00:27:59;6.53;;;1.63;;
18066;SDS011;9158;51.528;7.192;2022-09-27T00:28:31;4.82;;;1.60;;
18066;SDS011;9158;51.528;7.192;2022-09-27T00:29:04;2.13;;;1.15;;
18066;SDS011;9158;51.528;7.192;2022-09-27T00:29:36;5.43;;;2.00;;
18066;SDS011;9158;51.528;7.192;2022-09-27T00:30:08;4.45;;;1.85;;
18066;SDS011;9158;51.528;7.192;2022-09-27T00:30:40;3.83;;;1.15;;
18066;SDS011;9158;51.528;7.192;2022-09-27T00:31:20;5.10;;;1.42;;
18066;SDS011;9158;51.528;7.192;2022-09-27T00:31:53;3.03;;;1.55;;
18066;SDS011;9158;51.528;7.192;2022-09-27T00:32:26;2.60;;;1.50;;
18066;SDS011;9158;51.528;7.192;2022-09-27T00:32:57;2.58;;;1.33;;
18066;SDS011;9158;51.528;7.192;2022-09-27T00:33:28;4.57;;;1.50;;
18066;SDS011;9158;51.528;7.192;2022-09-27T00:34:00;5.28;;;1.55;;
18066;SDS011;9158;51.528;7.192;2022-09-27T00:34:32;2.20;;;1.48;;
18066;SDS011;9158;51.528;7.192;2022-09-27T00:35:04;5.33;;;1.53;;
18066;SDS011;9158;51.528;7.192;2022-09-27T00:35:36;8.27;;;1.80;;
18066;SDS011;9158;51.528;7.192;2022-09-27T00:36:07;4.18;;;1.92;;
18066;SDS011;9158;51.528;7.192;2022-09-27T00:36:39;4.18;;;1.67;;
18066;SDS011;9158;51.528;7.192;2022-09-27T00:37:11;6.18;;;2.00;;
18066;SDS011;9158;51.528;7.192;2022-09-27T00:37:42;3.70;;;1.63;;
18066;SDS011;9158;51.528;7.192;2022-09-27T00:38:13;6.90;;;1.97;;
18066;SDS011;9158;51.528;7.192;2022-09-27T00:38:45;3.95;;;1.48;;
18066;SDS011;9158;51.528;7.192;2022-09-27T00:39:17;6.70;;;1.45;;
18066;SDS011;9158;51.528;7.192;2022-09-27T00:39:48;2.45;;;1.63;;
18066;SDS011;9158;51.528;7.192;2022-09-27T00:40:20;6.88;;;1.83;;
18066;SDS011;9158;51.528;7.192;2022-09-27T00:40:53;3.17;;;1.10;;
18066;SDS011;9158;51.528;7.192;2022-09-27T00:41:25;5.40;;;2.43;;
18066;SDS011;9158;51.528;7.192;2022-09-27T00:41:57;2.78;;;1.85;;
18066;SDS011;9158;51.528;7.192;2022-09-27T00:42:29;4.55;;;1.80;;
18066;SDS011;9158;51.528;7.192;2022-09-27T00:43:00;5.30;;;1.57;;
18066;SDS011;9158;51.528;7.192;2022-09-27T00:43:42;4.13;;;1.60;;
18066;SDS011;9158;51.528;7.192;2022-09-27T00:45:28;3.40;;;1.25;;
18066;SDS011;9158;51.528;7.192;2022-09-27T00:46:01;5.28;;;1.65;;
18066;SDS011;9158;51.528;7.192;2022-09-27T00:46:34;3.92;;;1.70;;
18066;SDS011;9158;51.528;7.192;2022-09-27T00:47:09;2.63;;;1.95;;
18066;SDS011;9158;51.528;7.192;2022-09-27T00:47:46;6.05;;;2.58;;
18066;SDS011;9158;51.528;7.192;2022-09-27T00:48:23;5.05;;;1.85;;
18066;SDS011;9158;51.528;7.192;2022-09-27T00:49:02;3.58;;;1.95;;
18066;SDS011;9158;51.528;7.192;2022-09-27T00:49:37;7.20;;;2.58;;
18066;SDS011;9158;51.528;7.192;2022-09-27T00:50:15;5.60;;;2.38;;
18066;SDS011;9158;51.528;7.192;2022-09-27T00:50:56;4.78;;;2.10;;
18066;SDS011;9158;51.528;7.192;2022-09-27T00:51:30;6.78;;;2.80;;
18066;SDS011;9158;51.528;7.192;2022-09-27T00:52:06;4.45;;;2.60;;
18066;SDS011;9158;51.528;7.192;2022-09-27T00:52:41;6.53;;;3.00;;
18066;SDS011;9158;51.528;7.192;2022-09-27T00:53:19;3.05;;;2.55;;
18066;SDS011;9158;51.528;7.192;2022-09-27T00:53:54;6.05;;;2.90;;
18066;SDS011;9158;51.528;7.192;2022-09-27T00:54:27;4.15;;;2.42;;
18066;SDS011;9158;51.528;7.192;2022-09-27T00:55:01;5.93;;;3.10;;
18066;SDS011;9158;51.528;7.192;2022-09-27T00:55:38;6.18;;;2.55;;
18066;SDS011;9158;51.528;7.192;2022-09-27T00:56:14;5.43;;;3.38;;
18066;SDS011;9158;51.528;7.192;2022-09-27T00:56:48;6.38;;;2.67;;
18066;SDS011;9158;51.528;7.192;2022-09-27T00:57:20;5.90;;;2.75;;
18066;SDS011;9158;51.528;7.192;2022-09-27T00:57:52;9.70;;;3.72;;
18066;SDS011;9158;51.528;7.192;2022-09-27T00:58:25;5.53;;;2.70;;
18066;SDS011;9158;51.528;7.192;2022-09-27T00:59:01;7.13;;;3.25;;
18066;SDS011;9158;51.528;7.192;2022-09-27T00:59:37;4.97;;;2.95;;
18066;SDS011;9158;51.528;7.192;2022-09-27T01:00:14;6.80;;;3.05;;
18066;SDS011;9158;51.528;7.192;2022-09-27T01:00:47;6.78;;;3.20;;
18066;SDS011;9158;51.528;7.192;2022-09-27T01:01:23;6.53;;;3.25;;
18066;SDS011;9158;51.528;7.192;2022-09-27T01:01:54;8.57;;;3.00;;
18066;SDS011;9158;51.528;7.192;2022-09-27T01:02:26;6.55;;;3.47;;
18066;SDS011;9158;51.528;7.192;2022-09-27T01:02:58;10.98;;;3.67;;
18066;SDS011;9158;51.528;7.192;2022-09-27T01:03:31;6.95;;;3.72;;
18066;SDS011;9158;51.528;7.192;2022-09-27T01:04:09;6.85;;;3.05;;
18066;SDS011;9158;51.528;7.192;2022-09-27T01:04:43;6.38;;;4.13;;
18066;SDS011;9158;51.528;7.192;2022-09-27T01:05:17;11.52;;;3.58;;
18066;SDS011;9158;51.528;7.192;2022-09-27T01:05:52;5.32;;;3.33;;
18066;SDS011;9158;51.528;7.192;2022-09-27T01:06:23;6.80;;;3.80;;
18066;SDS011;9158;51.528;7.192;2022-09-27T01:06:54;7.33;;;3.73;;
18066;SDS011;9158;51.528;7.192;2022-09-27T01:07:27;10.13;;;3.60;;
18066;SDS011;9158;51.528;7.192;2022-09-27T01:07:58;6.00;;;4.90;;
18066;SDS011;9158;51.528;7.192;2022-09-27T01:08:30;7.07;;;3.90;;
18066;SDS011;9158;51.528;7.192;2022-09-27T01:09:01;7.75;;;3.78;;
18066;SDS011;9158;51.528;7.192;2022-09-27T01:09:33;7.88;;;4.10;;
18066;SDS011;9158;51.528;7.192;2022-09-27T01:10:05;6.20;;;3.95;;
18066;SDS011;9158;51.528;7.192;2022-09-27T01:10:39;9.27;;;5.22;;
18066;SDS011;9158;51.528;7.192;2022-09-27T01:11:22;10.13;;;4.28;;
18066;SDS011;9158;51.528;7.192;2022-09-27T01:12:04;6.03;;;4.10;;
18066;SDS011;9158;51.528;7.192;2022-09-27T01:12:48;8.43;;;4.82;;
18066;SDS011;9158;51.528;7.192;2022-09-27T01:13:29;7.32;;;3.90;;
18066;SDS011;9158;51.528;7.192;2022-09-27T01:14:09;6.63;;;4.50;;
18066;SDS011;9158;51.528;7.192;2022-09-27T01:14:57;6.70;;;4.50;;
18066;SDS011;9158;51.528;7.192;2022-09-27T01:15:38;6.93;;;4.00;;
18066;SDS011;9158;51.528;7.192;2022-09-27T01:16:17;11.50;;;4.43;;
18066;SDS011;9158;51.528;7.192;2022-09-27T01:16:59;6.07;;;4.13;;
18066;SDS011;9158;51.528;7.192;2022-09-27T01:17:39;7.32;;;3.90;;
18066;SDS011;9158;51.528;7.192;2022-09-27T01:18:21;10.55;;;5.22;;
18066;SDS011;9158;51.528;7.192;2022-09-27T01:19:03;6.60;;;4.20;;
18066;SDS011;9158;51.528;7.192;2022-09-27T01:20:11;4.38;;;3.40;;
18066;SDS011;9158;51.528;7.192;2022-09-27T01:20:58;7.65;;;3.75;;
18066;SDS011;9158;51.528;7.192;2022-09-27T01:21:48;5.80;;;3.70;;
18066;SDS011;9158;51.528;7.192;2022-09-27T01:22:27;6.13;;;3.30;;
18066;SDS011;9158;51.528;7.192;2022-09-27T01:23:13;4.38;;;3.30;;
18066;SDS011;9158;51.528;7.192;2022-09-27T01:24:01;4.28;;;2.75;;
18066;SDS011;9158;51.528;7.192;2022-09-27T01:24:59;6.93;;;3.50;;
18066;SDS011;9158;51.528;7.192;2022-09-27T01:25:46;7.45;;;3.80;;
18066;SDS011;9158;51.528;7.192;2022-09-27T01:26:37;7.20;;;3.70;;
18066;SDS011;9158;51.528;7.192;2022-09-27T01:28:35;5.15;;;3.33;;
18066;SDS011;9158;51.528;7.192;2022-09-27T01:29:20;7.68;;;3.65;;
18066;SDS011;9158;51.528;7.192;2022-09-27T01:30:18;4.43;;;3.20;;
18066;SDS011;9158;51.528;7.192;2022-09-27T01:30:55;4.82;;;3.38;;
18066;SDS011;9158;51.528;7.192;2022-09-27T01:31:34;7.65;;;3.35;;
18066;SDS011;9158;51.528;7.192;2022-09-27T01:32:12;6.90;;;3.42;;
18066;SDS011;9158;51.528;7.192;2022-09-27T01:32:51;10.20;;;3.70;;
18066;SDS011;9158;51.528;7.192;2022-09-27T01:33:39;4.65;;;3.70;;
18066;SDS011;9158;51.528;7.192;2022-09-27T01:34:17;10.50;;;3.95;;
18066;SDS011;9158;51.528;7.192;2022-09-27T01:34:54;5.60;;;3.55;;
18066;SDS011;9158;51.528;7.192;2022-09-27T01:35:33;3.75;;;3.35;;
18066;SDS011;9158;51.528;7.192;2022-09-27T01:36:19;3.10;;;2.80;;
18066;SDS011;9158;51.528;7.192;2022-09-27T01:37:00;4.40;;;3.40;;
18066;SDS011;9158;51.528;7.192;2022-09-27T01:37:41;6.68;;;3.95;;
18066;SDS011;9158;51.528;7.192;2022-09-27T01:38:21;8.88;;;4.10;;
18066;SDS011;9158;51.528;7.192;2022-09-27T01:39:04;8.70;;;3.50;;
18066;SDS011;9158;51.528;7.192;2022-09-27T01:40:19;5.28;;;3.60;;
18066;SDS011;9158;51.528;7.192;2022-09-27T01:41:21;8.93;;;4.07;;
18066;SDS011;9158;51.528;7.192;2022-09-27T01:42:18;6.45;;;3.70;;
18066;SDS011;9158;51.528;7.192;2022-09-27T01:42:58;4.60;;;3.60;;
18066;SDS011;9158;51.528;7.192;2022-09-27T01:43:39;5.20;;;3.72;;
18066;SDS011;9158;51.528;7.192;2022-09-27T01:44:19;7.07;;;4.25;;
18066;SDS011;9158;51.528;7.192;2022-09-27T01:45:01;7.18;;;4.00;;
18066;SDS011;9158;51.528;7.192;2022-09-27T01:45:47;6.45;;;3.85;;
18066;SDS011;9158;51.528;7.192;2022-09-27T01:46:44;4.90;;;3.83;;
18066;SDS011;9158;51.528;7.192;2022-09-27T01:47:23;5.40;;;3.85;;
18066;SDS011;9158;51.528;7.192;2022-09-27T01:48:06;5.25;;;3.88;;
18066;SDS011;9158;51.528;7.192;2022-09-27T01:48:59;6.47;;;5.00;;
18066;SDS011;9158;51.528;7.192;2022-09-27T01:49:38;6.40;;;4.03;;
18066;SDS011;9158;51.528;7.192;2022-09-27T01:50:13;7.90;;;4.43;;
18066;SDS011;9158;51.528;7.192;2022-09-27T01:50:49;9.32;;;5.03;;
18066;SDS011;9158;51.528;7.192;2022-09-27T01:51:26;6.80;;;4.35;;
18066;SDS011;9158;51.528;7.192;2022-09-27T01:52:01;8.40;;;4.35;;
18066;SDS011;9158;51.528;7.192;2022-09-27T01:52:38;7.55;;;4.68;;
18066;SDS011;9158;51.528;7.192;2022-09-27T01:53:17;8.07;;;5.03;;
18066;SDS011;9158;51.528;7.192;2022-09-27T01:54:09;10.90;;;4.40;;
18066;SDS011;9158;51.528;7.192;2022-09-27T01:55:01;6.57;;;3.90;;
18066;SDS011;9158;51.528;7.192;2022-09-27T01:55:47;5.65;;;4.40;;
18066;SDS011;9158;51.528;7.192;2022-09-27T01:56:49;7.63;;;4.72;;
18066;SDS011;9158;51.528;7.192;2022-09-27T01:57:29;6.28;;;5.68;;
18066;SDS011;9158;51.528;7.192;2022-09-27T01:58:09;7.13;;;4.43;;
18066;SDS011;9158;51.528;7.192;2022-09-27T01:58:48;6.38;;;4.60;;
18066;SDS011;9158;51.528;7.192;2022-09-27T01:59:24;7.78;;;5.53;;
18066;SDS011;9158;51.528;7.192;2022-09-27T02:00:32;5.68;;;4.43;;
18066;SDS011;9158;51.528;7.192;2022-09-27T02:01:07;7.25;;;4.85;;
18066;SDS011;9158;51.528;7.192;2022-09-27T02:01:42;9.55;;;6.13;;
18066;SDS011;9158;51.528;7.192;2022-09-27T02:02:17;6.78;;;5.25;;
18066;SDS011;9158;51.528;7.192;2022-09-27T02:03:13;7.15;;;4.88;;
18066;SDS011;9158;51.528;7.192;2022-09-27T02:04:09;7.05;;;4.82;;
18066;SDS011;9158;51.528;7.192;2022-09-27T02:05:09;5.68;;;4.80;;
18066;SDS011;9158;51.528;7.192;2022-09-27T02:05:47;9.65;;;5.40;;
18066;SDS011;9158;51.528;7.192;2022-09-27T02:06:52;7.28;;;5.00;;
18066;SDS011;9158;51.528;7.192;2022-09-27T02:07:33;6.78;;;5.18;;
18066;SDS011;9158;51.528;7.192;2022-09-27T02:08:11;9.38;;;5.85;;
18066;SDS011;9158;51.528;7.192;2022-09-27T02:08:47;9.35;;;6.10;;
18066;SDS011;9158;51.528;7.192;2022-09-27T02:09:44;10.38;;;5.07;;
18066;SDS011;9158;51.528;7.192;2022-09-27T02:10:24;7.28;;;5.95;;
18066;SDS011;9158;51.528;7.192;2022-09-27T02:11:00;7.50;;;5.90;;
18066;SDS011;9158;51.528;7.192;2022-09-27T02:11:38;7.75;;;5.68;;
18066;SDS011;9158;51.528;7.192;2022-09-27T02:12:19;6.18;;;5.00;;
18066;SDS011;9158;51.528;7.192;2022-09-27T02:12:59;10.50;;;6.10;;
18066;SDS011;9158;51.528;7.192;2022-09-27T02:13:34;11.43;;;6.50;;
18066;SDS011;9158;51.528;7.192;2022-09-27T02:14:30;8.25;;;5.32;;
18066;SDS011;9158;51.528;7.192;2022-09-27T02:15:07;7.72;;;5.47;;
18066;SDS011;9158;51.528;7.192;2022-09-27T02:15:44;9.23;;;6.20;;
18066;SDS011;9158;51.528;7.192;2022-09-27T02:16:32;6.50;;;5.90;;
18066;SDS011;9158;51.528;7.192;2022-09-27T02:17:14;8.90;;;5.82;;
18066;SDS011;9158;51.528;7.192;2022-09-27T02:17:54;9.25;;;4.57;;
18066;SDS011;9158;51.528;7.192;2022-09-27T02:18:29;7.22;;;6.38;;
18066;SDS011;9158;51.528;7.192;2022-09-27T02:19:06;7.40;;;6.25;;
18066;SDS011;9158;51.528;7.192;2022-09-27T02:19:45;8.77;;;5.75;;
18066;SDS011;9158;51.528;7.192;2022-09-27T02:20:30;7.90;;;5.90;;
18066;SDS011;9158;51.528;7.192;2022-09-27T02:21:07;6.72;;;5.57;;
18066;SDS011;9158;51.528;7.192;2022-09-27T02:21:42;6.10;;;5.50;;
18066;SDS011;9158;51.528;7.192;2022-09-27T02:22:21;9.43;;;6.00;;
18066;SDS011;9158;51.528;7.192;2022-09-27T02:23:03;9.52;;;5.63;;
18066;SDS011;9158;51.528;7.192;2022-09-27T02:23:45;9.65;;;5.50;;
18066;SDS011;9158;51.528;7.192;2022-09-27T02:24:21;7.95;;;5.75;;
18066;SDS011;9158;51.528;7.192;2022-09-27T02:25:01;6.50;;;5.40;;
18066;SDS011;9158;51.528;7.192;2022-09-27T02:25:41;8.82;;;4.90;;
18066;SDS011;9158;51.528;7.192;2022-09-27T02:26:18;11.18;;;5.68;;
18066;SDS011;9158;51.528;7.192;2022-09-27T02:26:55;7.88;;;5.10;;
18066;SDS011;9158;51.528;7.192;2022-09-27T02:27:32;7.63;;;6.03;;
18066;SDS011;9158;51.528;7.192;2022-09-27T02:28:16;11.10;;;6.05;;
18066;SDS011;9158;51.528;7.192;2022-09-27T02:28:56;8.55;;;5.60;;
18066;SDS011;9158;51.528;7.192;2022-09-27T02:29:43;6.38;;;5.22;;
18066;SDS011;9158;51.528;7.192;2022-09-27T02:30:20;6.15;;;5.55;;
18066;SDS011;9158;51.528;7.192;2022-09-27T02:30:59;6.65;;;5.07;;
18066;SDS011;9158;51.528;7.192;2022-09-27T02:31:36;9.98;;;5.57;;
18066;SDS011;9158;51.528;7.192;2022-09-27T02:32:07;12.13;;;7.88;;
18066;SDS011;9158;51.528;7.192;2022-09-27T02:32:39;8.85;;;6.80;;
18066;SDS011;9158;51.528;7.192;2022-09-27T02:33:12;5.32;;;4.82;;
18066;SDS011;9158;51.528;7.192;2022-09-27T02:33:44;7.80;;;5.45;;
18066;SDS011;9158;51.528;7.192;2022-09-27T02:34:21;8.68;;;6.20;;
18066;SDS011;9158;51.528;7.192;2022-09-27T02:34:56;7.55;;;5.00;;
18066;SDS011;9158;51.528;7.192;2022-09-27T02:35:31;8.60;;;5.68;;
18066;SDS011;9158;51.528;7.192;2022-09-27T02:36:04;7.47;;;6.10;;
18066;SDS011;9158;51.528;7.192;2022-09-27T02:36:35;11.77;;;6.18;;
18066;SDS011;9158;51.528;7.192;2022-09-27T02:37:08;8.15;;;5.53;;
18066;SDS011;9158;51.528;7.192;2022-09-27T02:37:40;6.15;;;5.25;;
18066;SDS011;9158;51.528;7.192;2022-09-27T02:38:11;6.70;;;5.72;;
18066;SDS011;9158;51.528;7.192;2022-09-27T02:38:43;9.73;;;5.20;;
18066;SDS011;9158;51.528;7.192;2022-09-27T02:39:17;7.28;;;4.85;;
18066;SDS011;9158;51.528;7.192;2022-09-27T02:39:49;6.20;;;5.55;;
18066;SDS011;9158;51.528;7.192;2022-09-27T02:40:20;6.40;;;5.05;;
18066;SDS011;9158;51.528;7.192;2022-09-27T02:40:52;5.80;;;5.25;;
18066;SDS011;9158;51.528;7.192;2022-09-27T02:41:23;7.40;;;5.40;;
18066;SDS011;9158;51.528;7.192;2022-09-27T02:41:55;7.28;;;5.40;;
18066;SDS011;9158;51.528;7.192;2022-09-27T02:42:29;9.07;;;4.88;;
18066;SDS011;9158;51.528;7.192;2022-09-27T02:43:01;6.68;;;4.97;;
18066;SDS011;9158;51.528;7.192;2022-09-27T02:43:35;6.75;;;5.50;;
18066;SDS011;9158;51.528;7.192;2022-09-27T02:44:10;12.50;;;5.03;;
18066;SDS011;9158;51.528;7.192;2022-09-27T02:44:44;7.88;;;5.35;;
18066;SDS011;9158;51.528;7.192;2022-09-27T02:45:15;9.63;;;5.50;;
18066;SDS011;9158;51.528;7.192;2022-09-27T02:45:52;8.60;;;5.82;;
18066;SDS011;9158;51.528;7.192;2022-09-27T02:46:46;7.60;;;5.70;;
18066;SDS011;9158;51.528;7.192;2022-09-27T02:47:35;6.00;;;5.00;;
18066;SDS011;9158;51.528;7.192;2022-09-27T02:48:18;7.40;;;5.65;;
18066;SDS011;9158;51.528;7.192;2022-09-27T02:49:02;13.60;;;7.35;;
18066;SDS011;9158;51.528;7.192;2022-09-27T02:49:46;10.70;;;8.00;;
18066;SDS011;9158;51.528;7.192;2022-09-27T02:50:54;11.00;;;7.63;;
18066;SDS011;9158;51.528;7.192;2022-09-27T02:51:45;9.10;;;5.25;;
18066;SDS011;9158;51.528;7.192;2022-09-27T02:52:28;9.35;;;6.40;;
18066;SDS011;9158;51.528;7.192;2022-09-27T02:53:07;9.40;;;7.82;;
18066;SDS011;9158;51.528;7.192;2022-09-27T02:53:57;10.45;;;7.38;;
18066;SDS011;9158;51.528;7.192;2022-09-27T02:54:59;12.27;;;6.25;;
18066;SDS011;9158;51.528;7.192;2022-09-27T02:55:56;7.72;;;6.18;;
18066;SDS011;9158;51.528;7.192;2022-09-27T02:57:07;8.90;;;6.65;;
18066;SDS011;9158;51.528;7.192;2022-09-27T02:58:05;6.82;;;6.13;;
18066;SDS011;9158;51.528;7.192;2022-09-27T02:59:16;6.57;;;5.68;;
18066;SDS011;9158;51.528;7.192;2022-09-27T03:00:20;10.07;;;5.60;;
18066;SDS011;9158;51.528;7.192;2022-09-27T03:01:05;6.20;;;5.53;;
18066;SDS011;9158;51.528;7.192;2022-09-27T03:01:50;6.10;;;5.43;;
18066;SDS011;9158;51.528;7.192;2022-09-27T03:02:37;13.25;;;5.70;;
18066;SDS011;9158;51.528;7.192;2022-09-27T03:03:38;11.68;;;6.00;;
18066;SDS011;9158;51.528;7.192;2022-09-27T03:04:16;6.72;;;5.15;;
18066;SDS011;9158;51.528;7.192;2022-09-27T03:04:54;9.05;;;6.38;;
18066;SDS011;9158;51.528;7.192;2022-09-27T03:05:29;6.32;;;5.68;;
18066;SDS011;9158;51.528;7.192;2022-09-27T03:06:06;9.80;;;6.05;;
18066;SDS011;9158;51.528;7.192;2022-09-27T03:06:40;9.80;;;6.18;;
18066;SDS011;9158;51.528;7.192;2022-09-27T03:07:14;8.13;;;6.05;;
18066;SDS011;9158;51.528;7.192;2022-09-27T03:07:46;6.20;;;5.38;;
18066;SDS011;9158;51.528;7.192;2022-09-27T03:08:18;11.55;;;6.45;;
18066;SDS011;9158;51.528;7.192;2022-09-27T03:08:50;7.68;;;5.15;;
18066;SDS011;9158;51.528;7.192;2022-09-27T03:09:22;6.97;;;5.50;;
18066;SDS011;9158;51.528;7.192;2022-09-27T03:09:54;7.38;;;5.22;;
18066;SDS011;9158;51.528;7.192;2022-09-27T03:10:27;8.70;;;5.60;;
18066;SDS011;9158;51.528;7.192;2022-09-27T03:10:58;7.95;;;5.28;;
18066;SDS011;9158;51.528;7.192;2022-09-27T03:11:29;8.38;;;5.60;;
18066;SDS011;9158;51.528;7.192;2022-09-27T03:12:02;10.27;;;5.70;;
18066;SDS011;9158;51.528;7.192;2022-09-27T03:12:33;10.00;;;5.10;;
18066;SDS011;9158;51.528;7.192;2022-09-27T03:13:04;7.28;;;5.70;;
18066;SDS011;9158;51.528;7.192;2022-09-27T03:13:37;9.88;;;5.20;;
18066;SDS011;9158;51.528;7.192;2022-09-27T03:14:10;8.02;;;5.45;;
18066;SDS011;9158;51.528;7.192;2022-09-27T03:14:48;6.03;;;5.13;;
18066;SDS011;9158;51.528;7.192;2022-09-27T03:15:40;8.25;;;5.45;;
18066;SDS011;9158;51.528;7.192;2022-09-27T03:16:11;7.43;;;5.60;;
18066;SDS011;9158;51.528;7.192;2022-09-27T03:16:57;7.20;;;5.10;;
18066;SDS011;9158;51.528;7.192;2022-09-27T03:17:46;10.68;;;5.18;;
18066;SDS011;9158;51.528;7.192;2022-09-27T03:18:47;8.63;;;5.05;;
18066;SDS011;9158;51.528;7.192;2022-09-27T03:19:41;8.60;;;5.40;;
18066;SDS011;9158;51.528;7.192;2022-09-27T03:20:32;9.68;;;4.20;;
18066;SDS011;9158;51.528;7.192;2022-09-27T03:21:23;8.43;;;4.88;;
18066;SDS011;9158;51.528;7.192;2022-09-27T03:21:55;5.85;;;4.65;;
18066;SDS011;9158;51.528;7.192;2022-09-27T03:22:27;6.72;;;4.80;;
18066;SDS011;9158;51.528;7.192;2022-09-27T03:22:58;6.77;;;5.00;;
18066;SDS011;9158;51.528;7.192;2022-09-27T03:23:29;4.83;;;4.20;;
18066;SDS011;9158;51.528;7.192;2022-09-27T03:24:02;9.10;;;5.47;;
18066;SDS011;9158;51.528;7.192;2022-09-27T03:24:35;7.93;;;5.40;;
18066;SDS011;9158;51.528;7.192;2022-09-27T03:25:07;9.75;;;4.75;;
18066;SDS011;9158;51.528;7.192;2022-09-27T03:25:39;5.80;;;4.85;;
18066;SDS011;9158;51.528;7.192;2022-09-27T03:26:12;10.88;;;5.65;;
18066;SDS011;9158;51.528;7.192;2022-09-27T03:26:43;8.88;;;5.38;;
18066;SDS011;9158;51.528;7.192;2022-09-27T03:27:15;9.98;;;5.00;;
18066;SDS011;9158;51.528;7.192;2022-09-27T03:27:46;5.93;;;4.85;;
18066;SDS011;9158;51.528;7.192;2022-09-27T03:28:17;6.57;;;4.95;;
18066;SDS011;9158;51.528;7.192;2022-09-27T03:28:51;12.18;;;4.93;;
18066;SDS011;9158;51.528;7.192;2022-09-27T03:29:22;5.22;;;4.00;;
18066;SDS011;9158;51.528;7.192;2022-09-27T03:29:59;9.13;;;5.63;;
18066;SDS011;9158;51.528;7.192;2022-09-27T03:30:32;8.98;;;4.70;;
18066;SDS011;9158;51.528;7.192;2022-09-27T03:31:03;5.05;;;3.90;;
18066;SDS011;9158;51.528;7.192;2022-09-27T03:31:54;4.88;;;4.38;;
18066;SDS011;9158;51.528;7.192;2022-09-27T03:32:42;4.95;;;4.30;;
18066;SDS011;9158;51.528;7.192;2022-09-27T03:33:32;5.93;;;4.97;;
18066;SDS011;9158;51.528;7.192;2022-09-27T03:34:08;5.80;;;3.90;;
18066;SDS011;9158;51.528;7.192;2022-09-27T03:34:40;7.38;;;4.32;;
18066;SDS011;9158;51.528;7.192;2022-09-27T03:35:11;7.90;;;4.17;;
18066;SDS011;9158;51.528;7.192;2022-09-27T03:35:42;4.82;;;3.97;;
18066;SDS011;9158;51.528;7.192;2022-09-27T03:36:13;4.75;;;3.88;;
18066;SDS011;9158;51.528;7.192;2022-09-27T03:36:45;5.00;;;4.50;;
18066;SDS011;9158;51.528;7.192;2022-09-27T03:37:16;7.15;;;4.43;;
18066;SDS011;9158;51.528;7.192;2022-09-27T03:37:47;6.85;;;4.82;;
18066;SDS011;9158;51.528;7.192;2022-09-27T03:38:20;3.63;;;3.30;;
18066;SDS011;9158;51.528;7.192;2022-09-27T03:38:52;5.40;;;4.03;;
18066;SDS011;9158;51.528;7.192;2022-09-27T03:39:24;4.47;;;3.75;;
18066;SDS011;9158;51.528;7.192;2022-09-27T03:39:56;9.50;;;3.75;;
18066;SDS011;9158;51.528;7.192;2022-09-27T03:40:27;6.63;;;3.55;;
18066;SDS011;9158;51.528;7.192;2022-09-27T03:40:58;6.65;;;4.07;;
18066;SDS011;9158;51.528;7.192;2022-09-27T03:41:30;13.88;;;4.22;;
18066;SDS011;9158;51.528;7.192;2022-09-27T03:42:02;5.38;;;3.60;;
18066;SDS011;9158;51.528;7.192;2022-09-27T03:42:33;4.68;;;3.60;;
18066;SDS011;9158;51.528;7.192;2022-09-27T03:43:05;7.30;;;4.63;;
18066;SDS011;9158;51.528;7.192;2022-09-27T03:43:37;6.00;;;4.07;;
18066;SDS011;9158;51.528;7.192;2022-09-27T03:44:08;4.20;;;3.80;;
18066;SDS011;9158;51.528;7.192;2022-09-27T03:44:39;6.18;;;3.20;;
18066;SDS011;9158;51.528;7.192;2022-09-27T03:45:11;10.05;;;4.60;;
18066;SDS011;9158;51.528;7.192;2022-09-27T03:45:42;7.30;;;3.58;;
18066;SDS011;9158;51.528;7.192;2022-09-27T03:46:15;5.82;;;3.20;;
18066;SDS011;9158;51.528;7.192;2022-09-27T03:46:47;5.32;;;3.25;;
18066;SDS011;9158;51.528;7.192;2022-09-27T03:47:18;4.80;;;3.22;;
18066;SDS011;9158;51.528;7.192;2022-09-27T03:47:50;6.88;;;3.67;;
18066;SDS011;9158;51.528;7.192;2022-09-27T03:48:22;5.30;;;4.05;;
18066;SDS011;9158;51.528;7.192;2022-09-27T03:48:53;3.75;;;3.25;;
18066;SDS011;9158;51.528;7.192;2022-09-27T03:49:24;6.35;;;3.47;;
18066;SDS011;9158;51.528;7.192;2022-09-27T03:49:56;7.20;;;4.68;;
18066;SDS011;9158;51.528;7.192;2022-09-27T03:50:27;7.00;;;3.80;;
18066;SDS011;9158;51.528;7.192;2022-09-27T03:50:58;6.57;;;3.63;;
18066;SDS011;9158;51.528;7.192;2022-09-27T03:51:32;5.90;;;5.25;;
18066;SDS011;9158;51.528;7.192;2022-09-27T03:52:03;5.43;;;3.40;;